createdAt,value
2022-10-28T00:00:51.158Z,100129.59
2022-10-28T00:03:20.364Z,100125.81
2022-10-28T00:05:47.826Z,100127.41
2022-10-28T00:08:15.322Z,100117.59
2022-10-28T00:10:42.783Z,100117.56
2022-10-28T00:13:10.310Z,100106.16
2022-10-28T00:15:37.767Z,100110.06
2022-10-28T00:18:06.621Z,100104.69
2022-10-28T00:20:35.436Z,100109.22
2022-10-28T00:23:02.880Z,100108.00
2022-10-28T00:25:30.353Z,100096.56
2022-10-28T00:27:57.838Z,100113.38
2022-10-28T00:30:25.367Z,100095.13
2022-10-28T00:32:53.884Z,100095.84
2022-10-28T00:35:21.482Z,100100.63
2022-10-28T00:37:54.204Z,100094.13
2022-10-28T00:40:21.669Z,100090.59
2022-10-28T00:42:49.250Z,100089.97
2022-10-28T00:45:16.722Z,100085.91
2022-10-28T00:47:52.483Z,100090.94
2022-10-28T00:50:32.969Z,100078.91
2022-10-28T00:53:05.096Z,100079.16
2022-10-28T00:55:33.961Z,100071.53
2022-10-28T00:58:03.393Z,100065.78
2022-10-28T01:00:30.950Z,100075.47
2022-10-28T01:02:58.506Z,100074.09
2022-10-28T01:05:28.920Z,100067.22
2022-10-28T01:08:00.219Z,100073.13
2022-10-28T01:10:39.252Z,100070.06
2022-10-28T01:13:16.462Z,100055.78
2022-10-28T01:15:49.557Z,100060.94
2022-10-28T01:18:26.398Z,100060.97
2022-10-28T01:21:19.341Z,100049.16
2022-10-28T01:24:00.266Z,100044.72
2022-10-28T01:26:46.547Z,100060.66
2022-10-28T01:29:37.919Z,100051.81
2022-10-28T01:32:14.756Z,100054.41
2022-10-28T01:34:50.941Z,100058.66
2022-10-28T01:37:23.884Z,100066.31
2022-10-28T01:39:54.919Z,100076.19
2022-10-28T01:42:29.273Z,100089.69
2022-10-28T01:45:04.353Z,100094.31
2022-10-28T01:47:38.382Z,100091.25
2022-10-28T01:50:09.540Z,100085.88
2022-10-28T01:52:41.024Z,100072.50
2022-10-28T01:55:14.287Z,100071.66
2022-10-28T01:57:43.017Z,100066.69
2022-10-28T02:00:11.935Z,100057.06
2022-10-28T02:02:42.633Z,100059.19
2022-10-28T02:05:41.688Z,100056.69
2022-10-28T02:08:31.647Z,100049.19
2022-10-28T02:11:20.667Z,100041.97
2022-10-28T02:13:56.260Z,100035.81
2022-10-28T02:16:33.259Z,100036.78
2022-10-28T02:19:09.810Z,100035.97
2022-10-28T02:21:50.788Z,100043.84
2022-10-28T02:24:22.672Z,100040.72
2022-10-28T02:26:55.449Z,100036.75
2022-10-28T02:29:32.295Z,100046.19
2022-10-28T02:32:03.152Z,100055.53
2022-10-28T02:34:34.548Z,100050.13
2022-10-28T02:37:06.646Z,100049.38
2022-10-28T02:39:40.108Z,100052.38
2022-10-28T02:42:13.457Z,100053.06
2022-10-28T02:44:49.576Z,100049.06
2022-10-28T02:47:22.803Z,100051.53
2022-10-28T02:49:56.968Z,100041.31
2022-10-28T02:52:27.142Z,100040.91
2022-10-28T02:54:57.308Z,100032.69
2022-10-28T02:57:27.224Z,100036.25
2022-10-28T02:59:55.575Z,100036.06
2022-10-28T03:02:23.336Z,100031.75
2022-10-28T03:04:52.195Z,100028.09
2022-10-28T03:07:19.819Z,100027.81
2022-10-28T03:09:47.284Z,100022.69
2022-10-28T03:12:15.041Z,100029.16
2022-10-28T03:14:42.495Z,100013.84
2022-10-28T03:17:10.111Z,100017.50
2022-10-28T03:19:37.616Z,100024.75
2022-10-28T03:22:06.414Z,100024.13
2022-10-28T03:24:33.893Z,100022.06
2022-10-28T03:27:01.514Z,100026.69
2022-10-28T03:29:28.943Z,100018.00
2022-10-28T03:31:56.453Z,100018.13
2022-10-28T03:34:23.994Z,100014.34
2022-10-28T03:36:51.494Z,100011.13
2022-10-28T03:39:20.315Z,100016.53
2022-10-28T03:41:47.790Z,100007.34
2022-10-28T03:44:15.278Z,100011.03
2022-10-28T03:46:42.814Z,100009.19
2022-10-28T03:49:10.289Z,100006.47
2022-10-28T03:51:37.783Z,100004.03
2022-10-28T03:54:05.456Z,99997.16
2022-10-28T03:56:34.252Z,99993.25
2022-10-28T03:59:01.705Z,99993.25
2022-10-28T04:01:29.330Z,99990.03
2022-10-28T04:03:56.828Z,99982.34
2022-10-28T04:06:24.410Z,99983.19
2022-10-28T04:08:51.870Z,99977.81
2022-10-28T04:11:19.436Z,99987.84
2022-10-28T04:13:48.219Z,99988.59
2022-10-28T04:16:15.670Z,99978.66
2022-10-28T04:18:43.123Z,99985.38
2022-10-28T04:21:10.652Z,99979.66
2022-10-28T04:23:38.105Z,99978.16
2022-10-28T04:26:06.197Z,99979.63
2022-10-28T04:28:33.890Z,99979.72
2022-10-28T04:31:03.066Z,99981.44
2022-10-28T04:33:30.595Z,99986.13
2022-10-28T04:35:58.166Z,99986.41
2022-10-28T04:40:58.124Z,99993.16
2022-10-28T04:43:25.689Z,99995.75
2022-10-28T04:45:53.245Z,99993.03
2022-10-28T04:48:22.169Z,99994.63
2022-10-28T04:50:50.914Z,99975.25
2022-10-28T04:53:18.447Z,99986.66
2022-10-28T04:55:45.925Z,99992.41
2022-10-28T04:58:13.421Z,99993.16
2022-10-28T05:00:40.873Z,100002.50
2022-10-28T05:03:08.354Z,100002.84
2022-10-28T05:05:37.212Z,100006.75
2022-10-28T05:08:04.872Z,100009.97
2022-10-28T05:10:32.414Z,100014.84
2022-10-28T05:12:59.887Z,100011.94
2022-10-28T05:15:27.388Z,100007.84
2022-10-28T05:17:55.301Z,100015.47
2022-10-28T05:20:23.164Z,100022.38
2022-10-28T05:22:54.810Z,100015.34
2022-10-28T05:25:22.895Z,100012.13
2022-10-28T05:27:50.829Z,100017.56
2022-10-28T05:30:19.017Z,100012.91
2022-10-28T05:32:49.187Z,100008.84
2022-10-28T05:35:19.177Z,100006.28
2022-10-28T05:37:46.652Z,100014.13
2022-10-28T05:40:15.730Z,100019.19
2022-10-28T05:42:44.258Z,100019.94
2022-10-28T05:45:12.448Z,100022.22
2022-10-28T05:47:43.458Z,100023.25
2022-10-28T05:50:11.357Z,100016.97
2022-10-28T05:52:38.917Z,100010.94
2022-10-28T05:55:07.477Z,100013.91
2022-10-28T05:57:36.625Z,100016.84
2022-10-28T06:00:06.143Z,100016.84
2022-10-28T06:02:33.657Z,100019.66
2022-10-28T06:05:01.150Z,100016.59
2022-10-28T06:07:29.884Z,100014.13
2022-10-28T06:09:57.339Z,100016.34
2022-10-28T06:12:23.562Z,100019.78
2022-10-28T06:14:52.375Z,100012.53
2022-10-28T06:17:19.869Z,100017.19
2022-10-28T06:19:47.381Z,100018.88
2022-10-28T06:22:14.839Z,100018.91
2022-10-28T06:24:42.318Z,100017.31
2022-10-28T06:27:09.925Z,100015.59
2022-10-28T06:29:37.422Z,100014.63
2022-10-28T06:32:08.916Z,100023.97
2022-10-28T06:34:37.561Z,100021.09
2022-10-28T06:37:06.438Z,100013.16
2022-10-28T06:39:34.148Z,100021.50
2022-10-28T06:42:01.608Z,100019.25
2022-10-28T06:44:29.080Z,100017.78
2022-10-28T06:46:58.081Z,100025.03
2022-10-28T06:49:26.901Z,100026.66
2022-10-28T06:51:54.367Z,100028.38
2022-10-28T06:54:21.846Z,100027.59
2022-10-28T06:56:49.325Z,100030.78
2022-10-28T06:59:16.806Z,100026.63
2022-10-28T07:01:44.493Z,100026.88
2022-10-28T07:04:13.690Z,100036.47
2022-10-28T07:06:42.868Z,100036.00
2022-10-28T07:09:14.177Z,100041.03
2022-10-28T07:11:43.582Z,100056.13
2022-10-28T07:14:11.301Z,100050.19
2022-10-28T07:16:39.048Z,100051.22
2022-10-28T07:19:06.498Z,100050.94
2022-10-28T07:21:33.986Z,100060.00
2022-10-28T07:24:03.187Z,100061.13
2022-10-28T07:26:30.645Z,100060.41
2022-10-28T07:28:58.184Z,100055.97
2022-10-28T07:31:27.631Z,100054.25
2022-10-28T07:33:55.710Z,100057.72
2022-10-28T07:36:23.275Z,100062.34
2022-10-28T07:38:51.836Z,100060.03
2022-10-28T07:41:22.079Z,100061.50
2022-10-28T07:43:49.888Z,100060.75
2022-10-28T07:46:18.936Z,100049.22
2022-10-28T07:48:46.663Z,100064.16
2022-10-28T07:51:16.104Z,100062.72
2022-10-28T07:53:43.550Z,100067.59
2022-10-28T07:56:15.652Z,100060.09
2022-10-28T07:58:45.869Z,100070.28
2022-10-28T08:01:15.921Z,100060.38
2022-10-28T08:03:44.597Z,100064.66
2022-10-28T08:06:16.077Z,100067.38
2022-10-28T08:08:44.366Z,100069.69
2022-10-28T08:11:12.892Z,100068.69
2022-10-28T08:13:40.605Z,100069.78
2022-10-28T08:16:10.153Z,100068.03
2022-10-28T08:18:38.588Z,100074.78
2022-10-28T08:21:07.388Z,100066.56
2022-10-28T08:23:35.592Z,100077.84
2022-10-28T08:26:03.267Z,100066.94
2022-10-28T08:28:30.809Z,100069.78
2022-10-28T08:31:08.576Z,100075.41
2022-10-28T08:33:38.904Z,100074.94
2022-10-28T08:36:07.492Z,100071.19
2022-10-28T08:38:35.052Z,100079.16
2022-10-28T08:41:13.763Z,100073.28
2022-10-28T08:43:57.990Z,100076.28
2022-10-28T08:46:38.588Z,100072.31
2022-10-28T08:49:13.301Z,100067.75
2022-10-28T08:51:46.607Z,100069.94
2022-10-28T08:54:19.715Z,100056.66
2022-10-28T08:56:49.782Z,100052.50
2022-10-28T08:59:23.500Z,100056.50
2022-10-28T09:04:36.775Z,100058.06
2022-10-28T09:07:04.821Z,100053.63
2022-10-28T09:09:33.623Z,100054.03
2022-10-28T09:12:16.072Z,100060.03
2022-10-28T09:15:06.943Z,100059.06
2022-10-28T09:17:43.828Z,100052.16
2022-10-28T09:20:19.740Z,100059.69
2022-10-28T09:22:56.679Z,100056.00
2022-10-28T09:25:32.809Z,100051.16
2022-10-28T09:28:14.490Z,100045.41
2022-10-28T09:30:52.304Z,100046.06
2022-10-28T09:33:43.854Z,100050.34
2022-10-28T09:36:20.084Z,100045.66
2022-10-28T09:38:48.850Z,100047.53
2022-10-28T09:41:19.386Z,100034.88
2022-10-28T09:43:50.415Z,100044.66
2022-10-28T09:46:19.584Z,100039.47
2022-10-28T09:48:49.835Z,100044.22
2022-10-28T09:51:27.415Z,100051.06
2022-10-28T09:53:58.379Z,100037.25
2022-10-28T09:56:26.870Z,100032.22
2022-10-28T09:58:56.668Z,100036.53
2022-10-28T10:01:24.323Z,100035.50
2022-10-28T10:03:53.209Z,100045.66
2022-10-28T10:06:27.035Z,100041.38
2022-10-28T10:08:56.234Z,100046.53
2022-10-28T10:11:31.399Z,100051.94
2022-10-28T10:14:01.495Z,100047.09
2022-10-28T10:16:39.875Z,100052.94
2022-10-28T10:19:09.405Z,100052.38
2022-10-28T10:21:46.909Z,100046.38
2022-10-28T10:24:25.943Z,100044.81
2022-10-28T10:26:55.084Z,100057.53
2022-10-28T10:29:23.406Z,100050.41
2022-10-28T10:32:05.449Z,100058.81
2022-10-28T10:34:34.323Z,100053.84
2022-10-28T10:39:38.760Z,100048.16
2022-10-28T10:42:16.888Z,100047.72
2022-10-28T10:44:44.710Z,100048.56
2022-10-28T10:47:20.460Z,100039.59
2022-10-28T10:49:49.702Z,100040.28
2022-10-28T10:52:22.755Z,100033.13
2022-10-28T10:55:01.597Z,100040.41
2022-10-28T10:57:29.864Z,100033.00
2022-10-28T10:59:58.331Z,100034.84
2022-10-28T11:02:28.957Z,100023.13
2022-10-28T11:05:00.731Z,100025.69
2022-10-28T11:07:31.159Z,100021.66
2022-10-28T11:09:58.758Z,100019.94
2022-10-28T11:12:29.224Z,100009.31
2022-10-28T11:14:58.789Z,100002.97
2022-10-28T11:17:28.894Z,100006.09
2022-10-28T11:19:58.697Z,100008.06
2022-10-28T11:22:39.900Z,100000.88
2022-10-28T11:25:36.564Z,100005.81
2022-10-28T11:28:21.035Z,99992.91
2022-10-28T11:30:58.944Z,99992.91
2022-10-28T11:33:35.365Z,99986.75
2022-10-28T11:36:16.719Z,99981.41
2022-10-28T11:38:58.591Z,99987.31
2022-10-28T11:41:41.150Z,99986.31
2022-10-28T11:44:24.242Z,99982.00
2022-10-28T11:47:05.053Z,99983.78
2022-10-28T11:50:02.295Z,99985.25
2022-10-28T11:52:45.301Z,99968.47
2022-10-28T11:55:23.721Z,99981.53
2022-10-28T11:58:05.841Z,99976.63
2022-10-28T12:00:48.375Z,99968.88
2022-10-28T12:03:41.545Z,99967.00
2022-10-28T12:06:17.757Z,99968.50
2022-10-28T12:09:00.699Z,99972.78
2022-10-28T12:11:40.478Z,99981.50
2022-10-28T12:14:18.229Z,99970.16
2022-10-28T12:16:53.730Z,99959.47
2022-10-28T12:19:27.948Z,99961.81
2022-10-28T12:22:02.164Z,99972.53
2022-10-28T12:24:32.445Z,99962.72
2022-10-28T12:27:05.641Z,99970.03
2022-10-28T12:29:38.662Z,99973.91
2022-10-28T12:32:09.995Z,99967.63
2022-10-28T12:34:43.964Z,99962.03
2022-10-28T12:37:14.689Z,99959.00
2022-10-28T12:39:49.553Z,99960.38
2022-10-28T12:42:26.665Z,99958.56
2022-10-28T12:44:57.991Z,99957.09
2022-10-28T12:47:31.577Z,99949.94
2022-10-28T12:50:06.715Z,99942.81
2022-10-28T12:52:40.098Z,99942.44
2022-10-28T12:55:19.331Z,99945.06
2022-10-28T12:57:51.896Z,99934.44
2022-10-28T13:00:24.383Z,99937.88
2022-10-28T13:02:56.977Z,99932.44
2022-10-28T13:05:28.389Z,99942.81
2022-10-28T13:08:10.430Z,99941.16
2022-10-28T13:10:44.374Z,99935.25
2022-10-28T13:13:39.133Z,99932.00
2022-10-28T13:16:29.411Z,99940.09
2022-10-28T13:19:20.929Z,99939.09
2022-10-28T13:22:06.760Z,99936.69
2022-10-28T13:24:43.218Z,99936.53
2022-10-28T13:27:14.171Z,99933.69
2022-10-28T13:29:44.811Z,99940.19
2022-10-28T13:32:37.345Z,99940.31
2022-10-28T13:35:14.592Z,99944.25
2022-10-28T13:37:46.638Z,99944.78
2022-10-28T13:40:23.281Z,99952.25
2022-10-28T13:42:51.364Z,99955.50
2022-10-28T13:45:50.299Z,99965.09
2022-10-28T13:48:45.822Z,99967.94
2022-10-28T13:51:35.345Z,99977.00
2022-10-28T13:54:02.853Z,99972.66
2022-10-28T13:56:45.680Z,99978.63
2022-10-28T13:59:30.169Z,99983.78
2022-10-28T14:02:34.429Z,99983.97
2022-10-28T14:05:06.183Z,99989.75
2022-10-28T14:07:36.420Z,99986.44
2022-10-28T14:10:20.793Z,99981.53
2022-10-28T14:12:50.907Z,99967.31
2022-10-28T14:15:22.339Z,99978.34
2022-10-28T14:18:00.896Z,99976.50
2022-10-28T14:20:41.847Z,99981.16
2022-10-28T14:23:45.633Z,99991.97
2022-10-28T14:26:13.137Z,99989.25
2022-10-28T14:28:54.423Z,99994.47
2022-10-28T14:31:39.224Z,99993.69
2022-10-28T14:34:35.056Z,99991.34
2022-10-28T14:37:18.477Z,99992.75
2022-10-28T14:39:58.893Z,100001.13
2022-10-28T14:42:42.075Z,100016.28
2022-10-28T14:45:26.958Z,100021.72
2022-10-28T14:48:15.772Z,100018.81
2022-10-28T14:50:47.221Z,100018.75
2022-10-28T14:53:19.663Z,100020.59
2022-10-28T14:55:51.451Z,100022.63
2022-10-28T14:58:22.504Z,100029.53
2022-10-28T15:01:00.758Z,100031.75
2022-10-28T15:03:28.776Z,100041.63
2022-10-28T15:06:05.101Z,100040.19
2022-10-28T15:08:32.620Z,100045.13
2022-10-28T15:11:00.177Z,100049.06
2022-10-28T15:13:27.857Z,100045.41
2022-10-28T15:15:59.401Z,100043.16
2022-10-28T15:18:29.702Z,100039.13
2022-10-28T15:21:12.458Z,100031.25
2022-10-28T15:23:39.926Z,100039.00
2022-10-28T15:26:08.757Z,100043.03
2022-10-28T15:28:37.240Z,100057.22
2022-10-28T15:31:04.915Z,100065.25
2022-10-28T15:33:33.782Z,100067.13
2022-10-28T15:36:18.363Z,100072.44
2022-10-28T15:38:47.404Z,100067.72
2022-10-28T15:41:42.597Z,100071.75
2022-10-28T15:44:26.585Z,100071.75
2022-10-28T15:46:55.848Z,100081.31
2022-10-28T15:49:36.102Z,100083.31
2022-10-28T15:52:31.497Z,100089.66
2022-10-28T15:54:59.671Z,100099.63
2022-10-28T15:57:29.746Z,100091.09
2022-10-28T16:00:22.384Z,100104.22
2022-10-28T16:03:01.626Z,100099.66
2022-10-28T16:05:54.245Z,100105.22
2022-10-28T16:08:26.548Z,100107.38
2022-10-28T16:10:57.583Z,100107.09
2022-10-28T16:13:29.201Z,100107.94
2022-10-28T16:16:00.653Z,100100.94
2022-10-28T16:18:30.767Z,100111.09
2022-10-28T16:21:00.166Z,100117.25
2022-10-28T16:23:35.732Z,100116.66
2022-10-28T16:26:03.452Z,100118.94
2022-10-28T16:28:32.325Z,100134.59
2022-10-28T16:31:01.860Z,100126.91
2022-10-28T16:33:32.796Z,100132.03
2022-10-28T16:36:00.931Z,100135.06
2022-10-28T16:38:30.571Z,100154.06
2022-10-28T16:40:59.276Z,100154.50
2022-10-28T16:43:28.329Z,100160.31
2022-10-28T16:45:57.467Z,100152.19
2022-10-28T16:48:30.727Z,100160.31
2022-10-28T16:51:00.476Z,100159.00
2022-10-28T16:53:27.999Z,100158.00
2022-10-28T16:55:59.674Z,100157.00
2022-10-28T16:58:28.412Z,100156.16
2022-10-28T17:00:57.146Z,100161.81
2022-10-28T17:03:24.789Z,100156.84
2022-10-28T17:05:56.782Z,100161.78
2022-10-28T17:08:48.927Z,100154.91
2022-10-28T17:11:15.791Z,100159.53
2022-10-28T17:13:45.038Z,100156.72
2022-10-28T17:16:13.338Z,100158.03
2022-10-28T17:18:42.450Z,100163.63
2022-10-28T17:21:10.417Z,100164.34
2022-10-28T17:23:40.186Z,100166.78
2022-10-28T17:26:07.698Z,100164.63
2022-10-28T17:28:36.593Z,100177.31
2022-10-28T17:31:05.173Z,100180.03
2022-10-28T17:33:32.950Z,100180.28
2022-10-28T17:36:02.605Z,100182.25
2022-10-28T17:38:30.739Z,100191.63
2022-10-28T17:40:58.774Z,100194.81
2022-10-28T17:43:26.510Z,100191.03
2022-10-28T17:46:04.284Z,100205.47
2022-10-28T17:48:31.926Z,100200.44
2022-10-28T17:50:59.416Z,100199.22
2022-10-28T17:53:27.048Z,100197.97
2022-10-28T17:55:58.396Z,100203.41
2022-10-28T17:58:26.198Z,100199.66
2022-10-28T18:00:59.014Z,100204.09
2022-10-28T18:03:27.315Z,100198.50
2022-10-28T18:05:55.311Z,100206.63
2022-10-28T18:08:23.455Z,100207.50
2022-10-28T18:10:54.853Z,100200.50
2022-10-28T18:13:26.393Z,100208.63
2022-10-28T18:15:53.908Z,100213.13
2022-10-28T18:18:22.793Z,100207.81
2022-10-28T18:20:53.931Z,100207.75
2022-10-28T18:23:21.506Z,100206.44
2022-10-28T18:25:58.440Z,100208.03
2022-10-28T18:28:26.072Z,100203.34
2022-10-28T18:30:53.771Z,100208.16
2022-10-28T18:33:22.643Z,100212.31
2022-10-28T18:35:50.123Z,100215.84
2022-10-28T18:38:17.641Z,100218.28
2022-10-28T18:40:48.313Z,100227.03
2022-10-28T18:43:15.798Z,100235.50
2022-10-28T18:45:43.288Z,100221.50
2022-10-28T18:48:10.859Z,100236.78
2022-10-28T18:50:39.786Z,100244.75
2022-10-28T18:53:07.799Z,100241.03
2022-10-28T18:55:35.496Z,100241.31
2022-10-28T18:58:03.203Z,100252.75
2022-10-28T19:00:30.657Z,100246.84
2022-10-28T19:02:58.138Z,100244.38
2022-10-28T19:05:25.609Z,100246.72
2022-10-28T19:07:54.681Z,100250.16
2022-10-28T19:10:22.373Z,100249.09
2022-10-28T19:12:53.015Z,100252.28
2022-10-28T19:15:20.860Z,100252.38
2022-10-28T19:17:48.404Z,100254.84
2022-10-28T19:20:16.191Z,100268.59
2022-10-28T19:22:43.727Z,100262.38
2022-10-28T19:25:12.650Z,100266.69
2022-10-28T19:27:40.140Z,100265.19
2022-10-28T19:30:12.407Z,100274.31
2022-10-28T19:32:41.155Z,100277.13
2022-10-28T19:35:09.365Z,100272.13
2022-10-28T19:37:36.936Z,100268.19
2022-10-28T19:40:04.767Z,100263.34
2022-10-28T19:42:33.587Z,100264.09
2022-10-28T19:45:03.779Z,100278.84
2022-10-28T19:47:31.331Z,100275.41
2022-10-28T19:49:59.043Z,100274.75
2022-10-28T19:52:26.601Z,100274.03
2022-10-28T19:54:54.042Z,100286.97
2022-10-28T19:57:21.675Z,100293.59
2022-10-28T19:59:50.500Z,100299.97
2022-10-28T20:02:18.085Z,100306.63
2022-10-28T20:04:45.898Z,100311.31
2022-10-28T20:07:13.369Z,100311.81
2022-10-28T20:09:40.858Z,100315.00
2022-10-28T20:12:08.351Z,100313.41
2022-10-28T20:14:35.868Z,100318.41
2022-10-28T20:17:06.740Z,100315.97
2022-10-28T20:19:34.533Z,100316.13
2022-10-28T20:22:02.074Z,100320.66
2022-10-28T20:24:29.548Z,100323.97
2022-10-28T20:26:57.044Z,100317.59
2022-10-28T20:29:24.629Z,100317.94
2022-10-28T20:31:52.249Z,100328.03
2022-10-28T20:34:21.112Z,100325.44
2022-10-28T20:36:48.603Z,100324.72
2022-10-28T20:39:17.915Z,100332.84
2022-10-28T20:41:47.346Z,100344.28
2022-10-28T20:44:15.341Z,100341.06
2022-10-28T20:46:44.869Z,100349.16
2022-10-28T20:49:13.112Z,100342.44
2022-10-28T20:51:44.780Z,100331.34
2022-10-28T20:54:12.303Z,100327.53
2022-10-28T20:56:40.220Z,100332.94
2022-10-28T20:59:07.906Z,100329.75
2022-10-28T21:01:38.135Z,100343.66
2022-10-28T21:04:08.373Z,100336.50
2022-10-28T21:06:38.621Z,100349.44
2022-10-28T21:09:08.698Z,100348.44
2022-10-28T21:11:36.221Z,100350.66
2022-10-28T21:14:03.930Z,100358.03
2022-10-28T21:16:31.779Z,100358.03
2022-10-28T21:19:00.028Z,100368.38
2022-10-28T21:21:28.301Z,100360.25
2022-10-28T21:23:55.813Z,100366.88
2022-10-28T21:26:26.538Z,100368.38
2022-10-28T21:28:54.755Z,100370.44
2022-10-28T21:31:23.124Z,100369.84
2022-10-28T21:33:51.137Z,100364.41
2022-10-28T21:36:20.383Z,100368.38
2022-10-28T21:38:48.097Z,100369.56
2022-10-28T21:41:17.546Z,100373.72
2022-10-28T21:43:48.592Z,100368.94
2022-10-28T21:46:16.672Z,100375.94
2022-10-28T21:48:44.418Z,100379.19
2022-10-28T21:51:15.272Z,100377.19
2022-10-28T21:53:44.037Z,100372.53
2022-10-28T21:56:17.154Z,100371.78
2022-10-28T21:58:48.651Z,100370.94
2022-10-28T22:01:18.564Z,100371.56
2022-10-28T22:03:46.264Z,100372.78
2022-10-28T22:06:14.122Z,100378.78
2022-10-28T22:08:42.058Z,100371.50
2022-10-28T22:11:13.464Z,100373.03
2022-10-28T22:13:40.953Z,100374.28
2022-10-28T22:16:12.798Z,100373.16
2022-10-28T22:18:40.605Z,100375.22
2022-10-28T22:21:11.117Z,100378.16
2022-10-28T22:23:39.165Z,100376.97
2022-10-28T22:26:08.995Z,100376.97
2022-10-28T22:28:36.638Z,100376.22
2022-10-28T22:31:06.352Z,100381.00
2022-10-28T22:33:37.480Z,100375.78
2022-10-28T22:36:11.292Z,100381.59
2022-10-28T22:38:42.425Z,100375.81
2022-10-28T22:41:13.817Z,100375.44
2022-10-28T22:43:42.598Z,100380.53
2022-10-28T22:46:17.060Z,100370.69
2022-10-28T22:48:46.421Z,100376.88
2022-10-28T22:51:22.504Z,100380.34
2022-10-28T22:53:51.270Z,100382.06
2022-10-28T22:56:21.372Z,100377.16
2022-10-28T22:58:49.713Z,100369.69
2022-10-28T23:01:19.675Z,100373.34
2022-10-28T23:03:50.194Z,100371.16
2022-10-28T23:06:19.987Z,100381.09
2022-10-28T23:08:48.394Z,100376.28
2022-10-28T23:11:17.797Z,100376.41
2022-10-28T23:13:45.756Z,100377.41
2022-10-28T23:16:15.478Z,100384.53
2022-10-28T23:18:44.384Z,100380.84
2022-10-28T23:21:15.440Z,100376.78
2022-10-28T23:23:49.633Z,100378.66
2022-10-28T23:26:20.874Z,100371.16
2022-10-28T23:28:51.578Z,100382.94
2022-10-28T23:31:19.694Z,100378.97
2022-10-28T23:33:47.608Z,100383.88
2022-10-28T23:36:17.009Z,100383.41
2022-10-28T23:38:47.864Z,100376.66
2022-10-28T23:41:18.790Z,100374.28
2022-10-28T23:43:47.254Z,100379.59
2022-10-28T23:46:14.910Z,100380.88
2022-10-28T23:48:42.432Z,100384.03
2022-10-28T23:51:10.367Z,100386.75
2022-10-28T23:53:39.381Z,100390.53
2022-10-28T23:56:07.968Z,100403.81
2022-10-28T23:58:35.469Z,100409.47
